sensor_id;sensor_type;location;lat;lon;timestamp;pressure;altitude;pressure_sealevel;temperature;humidity
79690;BME280;69156;55.932;-3.238;2024-01-30T00:01:01;101636.49;;;6.23;100.00
79690;BME280;69156;55.932;-3.238;2024-01-30T00:03:27;101639.34;;;6.36;100.00
79690;BME280;69156;55.932;-3.238;2024-01-30T00:05:52;101634.87;;;6.27;100.00
79690;BME280;69156;55.932;-3.238;2024-01-30T00:08:17;101632.40;;;6.27;100.00
79690;BME280;69156;55.932;-3.238;2024-01-30T00:10:43;101631.98;;;6.19;100.00
79690;BME280;69156;55.932;-3.238;2024-01-30T00:13:08;101639.80;;;6.27;100.00
79690;BME280;69156;55.932;-3.238;2024-01-30T00:15:34;101635.84;;;6.22;100.00
79690;BME280;69156;55.932;-3.238;2024-01-30T00:17:59;101639.50;;;6.37;100.00
79690;BME280;69156;55.932;-3.238;2024-01-30T00:20:25;101639.56;;;6.22;100.00
79690;BME280;69156;55.932;-3.238;2024-01-30T00:22:50;101633.81;;;5.98;100.00
79690;BME280;69156;55.932;-3.238;2024-01-30T00:25:15;101631.33;;;6.25;100.00
79690;BME280;69156;55.932;-3.238;2024-01-30T00:27:41;101634.55;;;6.26;100.00
79690;BME280;69156;55.932;-3.238;2024-01-30T00:30:07;101633.87;;;6.30;100.00
79690;BME280;69156;55.932;-3.238;2024-01-30T00:32:32;101637.23;;;6.26;100.00
79690;BME280;69156;55.932;-3.238;2024-01-30T00:34:57;101639.73;;;6.13;100.00
79690;BME280;69156;55.932;-3.238;2024-01-30T00:37:23;101639.38;;;6.24;100.00
79690;BME280;69156;55.932;-3.238;2024-01-30T00:39:48;101640.62;;;6.28;100.00
79690;BME280;69156;55.932;-3.238;2024-01-30T00:42:13;101640.95;;;6.19;100.00
79690;BME280;69156;55.932;-3.238;2024-01-30T00:44:39;101641.09;;;6.36;100.00
79690;BME280;69156;55.932;-3.238;2024-01-30T00:47:05;101636.11;;;6.22;100.00
79690;BME280;69156;55.932;-3.238;2024-01-30T00:49:30;101636.95;;;6.27;100.00
79690;BME280;69156;55.932;-3.238;2024-01-30T00:51:55;101639.10;;;6.26;100.00
79690;BME280;69156;55.932;-3.238;2024-01-30T00:54:20;101638.55;;;6.33;100.00
79690;BME280;69156;55.932;-3.238;2024-01-30T00:56:46;101641.71;;;6.34;100.00
79690;BME280;69156;55.932;-3.238;2024-01-30T00:59:11;101641.29;;;6.09;100.00
79690;BME280;69156;55.932;-3.238;2024-01-30T01:01:37;101634.51;;;6.10;100.00
79690;BME280;69156;55.932;-3.238;2024-01-30T01:04:03;101635.56;;;6.15;100.00
79690;BME280;69156;55.932;-3.238;2024-01-30T01:06:28;101631.23;;;6.24;100.00
79690;BME280;69156;55.932;-3.238;2024-01-30T01:08:54;101621.05;;;6.09;100.00
79690;BME280;69156;55.932;-3.238;2024-01-30T01:11:19;101622.08;;;5.95;100.00
79690;BME280;69156;55.932;-3.238;2024-01-30T01:13:45;101617.78;;;6.21;100.00
79690;BME280;69156;55.932;-3.238;2024-01-30T01:16:11;101615.92;;;5.98;100.00
79690;BME280;69156;55.932;-3.238;2024-01-30T01:18:37;101612.87;;;6.05;100.00
79690;BME280;69156;55.932;-3.238;2024-01-30T01:21:02;101614.88;;;5.91;100.00
79690;BME280;69156;55.932;-3.238;2024-01-30T01:23:28;101612.15;;;6.06;100.00
79690;BME280;69156;55.932;-3.238;2024-01-30T01:25:54;101612.56;;;5.87;100.00
79690;BME280;69156;55.932;-3.238;2024-01-30T01:28:19;101611.17;;;5.90;100.00
79690;BME280;69156;55.932;-3.238;2024-01-30T01:30:44;101612.45;;;5.95;100.00
79690;BME280;69156;55.932;-3.238;2024-01-30T01:33:10;101615.57;;;6.10;100.00
79690;BME280;69156;55.932;-3.238;2024-01-30T01:35:35;101620.64;;;5.91;100.00
79690;BME280;69156;55.932;-3.238;2024-01-30T01:38:01;101621.05;;;5.94;100.00
79690;BME280;69156;55.932;-3.238;2024-01-30T01:40:27;101625.55;;;5.76;100.00
79690;BME280;69156;55.932;-3.238;2024-01-30T01:42:52;101624.61;;;5.94;100.00
79690;BME280;69156;55.932;-3.238;2024-01-30T01:45:18;101626.83;;;5.96;100.00
79690;BME280;69156;55.932;-3.238;2024-01-30T01:47:44;101624.58;;;5.82;100.00
79690;BME280;69156;55.932;-3.238;2024-01-30T01:50:09;101619.01;;;5.88;100.00
79690;BME280;69156;55.932;-3.238;2024-01-30T01:52:35;101630.58;;;5.85;100.00
79690;BME280;69156;55.932;-3.238;2024-01-30T01:54:59;101629.42;;;5.77;100.00
79690;BME280;69156;55.932;-3.238;2024-01-30T01:57:26;101627.77;;;5.79;100.00
79690;BME280;69156;55.932;-3.238;2024-01-30T01:59:52;101629.41;;;5.69;100.00
79690;BME280;69156;55.932;-3.238;2024-01-30T02:02:18;101628.61;;;5.84;100.00
79690;BME280;69156;55.932;-3.238;2024-01-30T02:04:42;101633.01;;;5.80;100.00
79690;BME280;69156;55.932;-3.238;2024-01-30T02:07:07;101634.87;;;5.72;100.00
79690;BME280;69156;55.932;-3.238;2024-01-30T02:09:32;101645.18;;;5.85;100.00
79690;BME280;69156;55.932;-3.238;2024-01-30T02:11:57;101645.79;;;5.84;100.00
79690;BME280;69156;55.932;-3.238;2024-01-30T02:14:23;101640.51;;;5.71;100.00
79690;BME280;69156;55.932;-3.238;2024-01-30T02:16:48;101644.03;;;5.85;100.00
79690;BME280;69156;55.932;-3.238;2024-01-30T02:19:14;101645.23;;;5.78;100.00
79690;BME280;69156;55.932;-3.238;2024-01-30T02:21:39;101641.20;;;5.65;100.00
79690;BME280;69156;55.932;-3.238;2024-01-30T02:24:06;101639.37;;;5.87;100.00
79690;BME280;69156;55.932;-3.238;2024-01-30T02:26:30;101632.52;;;5.98;100.00
79690;BME280;69156;55.932;-3.238;2024-01-30T02:28:56;101635.06;;;5.94;100.00
79690;BME280;69156;55.932;-3.238;2024-01-30T02:31:22;101628.04;;;5.70;100.00
79690;BME280;69156;55.932;-3.238;2024-01-30T02:33:49;101632.81;;;5.76;100.00
79690;BME280;69156;55.932;-3.238;2024-01-30T02:36:14;101633.98;;;5.90;100.00
79690;BME280;69156;55.932;-3.238;2024-01-30T02:38:41;101631.62;;;5.84;100.00
79690;BME280;69156;55.932;-3.238;2024-01-30T02:41:06;101628.69;;;5.73;100.00
79690;BME280;69156;55.932;-3.238;2024-01-30T02:43:32;101619.23;;;5.80;100.00
79690;BME280;69156;55.932;-3.238;2024-01-30T02:45:58;101616.03;;;5.92;100.00
79690;BME280;69156;55.932;-3.238;2024-01-30T02:48:23;101609.77;;;5.79;100.00
79690;BME280;69156;55.932;-3.238;2024-01-30T02:50:48;101605.29;;;5.85;100.00
79690;BME280;69156;55.932;-3.238;2024-01-30T02:53:14;101606.31;;;5.80;100.00
79690;BME280;69156;55.932;-3.238;2024-01-30T02:55:39;101609.32;;;5.72;100.00
79690;BME280;69156;55.932;-3.238;2024-01-30T02:58:05;101615.62;;;5.80;100.00
79690;BME280;69156;55.932;-3.238;2024-01-30T03:00:30;101617.45;;;5.77;100.00
79690;BME280;69156;55.932;-3.238;2024-01-30T03:02:56;101622.95;;;5.81;100.00
79690;BME280;69156;55.932;-3.238;2024-01-30T03:05:22;101619.63;;;5.85;100.00
79690;BME280;69156;55.932;-3.238;2024-01-30T03:07:47;101619.22;;;5.81;100.00
79690;BME280;69156;55.932;-3.238;2024-01-30T03:10:13;101619.35;;;5.69;100.00
79690;BME280;69156;55.932;-3.238;2024-01-30T03:12:39;101619.34;;;5.71;100.00
79690;BME280;69156;55.932;-3.238;2024-01-30T03:15:05;101620.99;;;5.70;100.00
79690;BME280;69156;55.932;-3.238;2024-01-30T03:17:30;101620.15;;;5.72;100.00
79690;BME280;69156;55.932;-3.238;2024-01-30T03:19:55;101618.39;;;5.73;100.00
79690;BME280;69156;55.932;-3.238;2024-01-30T03:22:20;101615.35;;;5.87;100.00
79690;BME280;69156;55.932;-3.238;2024-01-30T03:24:45;101617.41;;;5.81;100.00
79690;BME280;69156;55.932;-3.238;2024-01-30T03:27:11;101614.72;;;5.83;100.00
79690;BME280;69156;55.932;-3.238;2024-01-30T03:29:36;101621.10;;;5.61;100.00
79690;BME280;69156;55.932;-3.238;2024-01-30T03:32:01;101625.50;;;5.82;100.00
79690;BME280;69156;55.932;-3.238;2024-01-30T03:34:26;101625.59;;;5.77;100.00
79690;BME280;69156;55.932;-3.238;2024-01-30T03:36:52;101631.03;;;5.91;100.00
79690;BME280;69156;55.932;-3.238;2024-01-30T03:39:18;101631.74;;;5.83;100.00
79690;BME280;69156;55.932;-3.238;2024-01-30T03:41:43;101633.33;;;5.74;100.00
79690;BME280;69156;55.932;-3.238;2024-01-30T03:44:09;101635.21;;;5.79;100.00
79690;BME280;69156;55.932;-3.238;2024-01-30T03:46:35;101636.84;;;5.72;100.00
79690;BME280;69156;55.932;-3.238;2024-01-30T03:49:00;101637.97;;;5.74;100.00
79690;BME280;69156;55.932;-3.238;2024-01-30T03:51:25;101636.07;;;5.81;100.00
79690;BME280;69156;55.932;-3.238;2024-01-30T03:53:51;101637.02;;;5.87;100.00
79690;BME280;69156;55.932;-3.238;2024-01-30T03:56:17;101639.48;;;5.79;100.00
79690;BME280;69156;55.932;-3.238;2024-01-30T03:58:42;101637.36;;;5.76;100.00
79690;BME280;69156;55.932;-3.238;2024-01-30T04:01:12;101637.74;;;5.94;100.00
79690;BME280;69156;55.932;-3.238;2024-01-30T04:03:33;101641.31;;;5.83;100.00
79690;BME280;69156;55.932;-3.238;2024-01-30T04:05:58;101645.60;;;5.90;100.00
79690;BME280;69156;55.932;-3.238;2024-01-30T04:08:24;101651.40;;;5.89;100.00
79690;BME280;69156;55.932;-3.238;2024-01-30T04:10:50;101650.30;;;5.81;100.00
79690;BME280;69156;55.932;-3.238;2024-01-30T04:13:15;101647.04;;;5.86;100.00
79690;BME280;69156;55.932;-3.238;2024-01-30T04:15:40;101648.62;;;5.78;100.00
79690;BME280;69156;55.932;-3.238;2024-01-30T04:18:06;101646.64;;;5.88;100.00
79690;BME280;69156;55.932;-3.238;2024-01-30T04:20:32;101644.00;;;5.81;100.00
79690;BME280;69156;55.932;-3.238;2024-01-30T04:22:57;101646.38;;;5.85;100.00
79690;BME280;69156;55.932;-3.238;2024-01-30T04:25:22;101646.92;;;5.78;100.00
79690;BME280;69156;55.932;-3.238;2024-01-30T04:27:48;101647.20;;;5.85;100.00
79690;BME280;69156;55.932;-3.238;2024-01-30T04:30:13;101644.89;;;5.70;100.00
79690;BME280;69156;55.932;-3.238;2024-01-30T04:32:39;101647.34;;;5.72;100.00
79690;BME280;69156;55.932;-3.238;2024-01-30T04:35:04;101648.18;;;5.67;100.00
79690;BME280;69156;55.932;-3.238;2024-01-30T04:37:30;101651.69;;;5.67;100.00
79690;BME280;69156;55.932;-3.238;2024-01-30T04:39:56;101657.94;;;5.74;100.00
79690;BME280;69156;55.932;-3.238;2024-01-30T04:42:22;101663.93;;;5.69;100.00
79690;BME280;69156;55.932;-3.238;2024-01-30T04:44:47;101668.93;;;5.64;100.00
79690;BME280;69156;55.932;-3.238;2024-01-30T04:47:13;101673.20;;;5.64;100.00
79690;BME280;69156;55.932;-3.238;2024-01-30T04:49:38;101682.01;;;5.62;100.00
79690;BME280;69156;55.932;-3.238;2024-01-30T04:52:03;101682.27;;;5.64;100.00
79690;BME280;69156;55.932;-3.238;2024-01-30T04:54:28;101680.91;;;5.52;100.00
79690;BME280;69156;55.932;-3.238;2024-01-30T04:56:53;101683.15;;;5.65;100.00
79690;BME280;69156;55.932;-3.238;2024-01-30T04:59:19;101680.76;;;5.40;100.00
79690;BME280;69156;55.932;-3.238;2024-01-30T05:01:45;101683.31;;;5.54;100.00
79690;BME280;69156;55.932;-3.238;2024-01-30T05:04:10;101685.76;;;5.57;100.00
79690;BME280;69156;55.932;-3.238;2024-01-30T05:06:36;101683.85;;;5.55;100.00
79690;BME280;69156;55.932;-3.238;2024-01-30T05:09:02;101686.03;;;5.56;100.00
79690;BME280;69156;55.932;-3.238;2024-01-30T05:11:27;101689.68;;;5.52;100.00
79690;BME280;69156;55.932;-3.238;2024-01-30T05:13:52;101693.84;;;5.58;100.00
79690;BME280;69156;55.932;-3.238;2024-01-30T05:16:18;101698.99;;;5.50;100.00
79690;BME280;69156;55.932;-3.238;2024-01-30T05:18:43;101700.69;;;5.55;100.00
79690;BME280;69156;55.932;-3.238;2024-01-30T05:21:08;101698.49;;;5.47;100.00
79690;BME280;69156;55.932;-3.238;2024-01-30T05:23:33;101700.48;;;5.53;100.00
79690;BME280;69156;55.932;-3.238;2024-01-30T05:25:59;101701.93;;;5.40;100.00
79690;BME280;69156;55.932;-3.238;2024-01-30T05:28:25;101702.33;;;5.46;100.00
79690;BME280;69156;55.932;-3.238;2024-01-30T05:30:50;101700.35;;;5.43;100.00
79690;BME280;69156;55.932;-3.238;2024-01-30T05:33:15;101698.58;;;5.37;100.00
79690;BME280;69156;55.932;-3.238;2024-01-30T05:35:41;101704.47;;;5.42;100.00
79690;BME280;69156;55.932;-3.238;2024-01-30T05:38:07;101709.17;;;5.52;100.00
79690;BME280;69156;55.932;-3.238;2024-01-30T05:40:32;101714.26;;;5.40;100.00
79690;BME280;69156;55.932;-3.238;2024-01-30T05:42:58;101716.39;;;5.50;100.00
79690;BME280;69156;55.932;-3.238;2024-01-30T05:45:23;101721.26;;;5.34;100.00
79690;BME280;69156;55.932;-3.238;2024-01-30T05:47:49;101723.18;;;5.40;100.00
79690;BME280;69156;55.932;-3.238;2024-01-30T05:50:15;101722.77;;;5.32;100.00
79690;BME280;69156;55.932;-3.238;2024-01-30T05:52:41;101728.04;;;5.25;100.00
79690;BME280;69156;55.932;-3.238;2024-01-30T05:55:07;101729.70;;;5.18;100.00
79690;BME280;69156;55.932;-3.238;2024-01-30T05:57:32;101729.95;;;5.25;100.00
79690;BME280;69156;55.932;-3.238;2024-01-30T05:59:57;101733.87;;;5.24;100.00
79690;BME280;69156;55.932;-3.238;2024-01-30T06:02:22;101733.93;;;5.30;100.00
79690;BME280;69156;55.932;-3.238;2024-01-30T06:04:48;101731.40;;;5.15;100.00
79690;BME280;69156;55.932;-3.238;2024-01-30T06:07:13;101736.27;;;5.25;100.00
79690;BME280;69156;55.932;-3.238;2024-01-30T06:09:39;101735.64;;;5.13;100.00
79690;BME280;69156;55.932;-3.238;2024-01-30T06:12:05;101733.84;;;5.13;100.00
79690;BME280;69156;55.932;-3.238;2024-01-30T06:14:30;101736.16;;;5.00;100.00
79690;BME280;69156;55.932;-3.238;2024-01-30T06:16:55;101743.37;;;5.01;100.00
79690;BME280;69156;55.932;-3.238;2024-01-30T06:19:21;101744.15;;;4.94;100.00
79690;BME280;69156;55.932;-3.238;2024-01-30T06:21:48;101746.56;;;4.90;100.00
79690;BME280;69156;55.932;-3.238;2024-01-30T06:24:13;101751.82;;;4.84;100.00
79690;BME280;69156;55.932;-3.238;2024-01-30T06:26:39;101753.58;;;4.71;100.00
79690;BME280;69156;55.932;-3.238;2024-01-30T06:29:04;101758.22;;;4.68;100.00
79690;BME280;69156;55.932;-3.238;2024-01-30T06:31:30;101756.53;;;4.69;100.00
79690;BME280;69156;55.932;-3.238;2024-01-30T06:33:55;101761.23;;;4.75;100.00
79690;BME280;69156;55.932;-3.238;2024-01-30T06:36:20;101761.83;;;4.58;100.00
79690;BME280;69156;55.932;-3.238;2024-01-30T06:38:46;101761.78;;;4.47;100.00
79690;BME280;69156;55.932;-3.238;2024-01-30T06:41:12;101758.01;;;4.48;100.00
79690;BME280;69156;55.932;-3.238;2024-01-30T06:43:37;101758.23;;;4.45;100.00
79690;BME280;69156;55.932;-3.238;2024-01-30T06:46:02;101757.96;;;4.47;100.00
79690;BME280;69156;55.932;-3.238;2024-01-30T06:48:28;101756.81;;;4.38;100.00
79690;BME280;69156;55.932;-3.238;2024-01-30T06:50:53;101761.29;;;4.37;100.00
79690;BME280;69156;55.932;-3.238;2024-01-30T06:53:18;101765.87;;;4.37;100.00
79690;BME280;69156;55.932;-3.238;2024-01-30T06:55:44;101766.69;;;4.46;100.00
79690;BME280;69156;55.932;-3.238;2024-01-30T06:58:09;101769.14;;;4.25;100.00
79690;BME280;69156;55.932;-3.238;2024-01-30T07:00:34;101771.71;;;4.25;100.00
79690;BME280;69156;55.932;-3.238;2024-01-30T07:03:00;101774.38;;;4.33;100.00
79690;BME280;69156;55.932;-3.238;2024-01-30T07:05:25;101780.27;;;4.30;100.00
79690;BME280;69156;55.932;-3.238;2024-01-30T07:07:51;101786.27;;;4.17;100.00
79690;BME280;69156;55.932;-3.238;2024-01-30T07:10:17;101788.35;;;4.30;100.00
79690;BME280;69156;55.932;-3.238;2024-01-30T07:12:42;101787.68;;;4.12;100.00
79690;BME280;69156;55.932;-3.238;2024-01-30T07:15:08;101790.78;;;4.11;100.00
79690;BME280;69156;55.932;-3.238;2024-01-30T07:17:34;101792.86;;;4.16;100.00
79690;BME280;69156;55.932;-3.238;2024-01-30T07:19:59;101798.63;;;4.15;100.00
79690;BME280;69156;55.932;-3.238;2024-01-30T07:22:24;101799.45;;;4.10;100.00
79690;BME280;69156;55.932;-3.238;2024-01-30T07:24:50;101805.11;;;4.13;100.00
79690;BME280;69156;55.932;-3.238;2024-01-30T07:27:15;101811.03;;;3.82;100.00
79690;BME280;69156;55.932;-3.238;2024-01-30T07:29:41;101813.70;;;3.89;100.00
79690;BME280;69156;55.932;-3.238;2024-01-30T07:32:06;101820.09;;;3.92;100.00
79690;BME280;69156;55.932;-3.238;2024-01-30T07:34:32;101825.11;;;3.84;100.00
79690;BME280;69156;55.932;-3.238;2024-01-30T07:36:58;101830.07;;;3.75;100.00
79690;BME280;69156;55.932;-3.238;2024-01-30T07:39:23;101834.80;;;3.80;100.00
79690;BME280;69156;55.932;-3.238;2024-01-30T07:41:48;101835.92;;;3.81;100.00
79690;BME280;69156;55.932;-3.238;2024-01-30T07:44:14;101838.70;;;3.79;100.00
79690;BME280;69156;55.932;-3.238;2024-01-30T07:46:40;101840.34;;;3.63;100.00
79690;BME280;69156;55.932;-3.238;2024-01-30T07:49:05;101843.23;;;3.64;100.00
79690;BME280;69156;55.932;-3.238;2024-01-30T07:51:30;101849.07;;;3.74;100.00
79690;BME280;69156;55.932;-3.238;2024-01-30T07:53:56;101852.38;;;3.71;100.00
79690;BME280;69156;55.932;-3.238;2024-01-30T07:56:21;101853.47;;;3.69;100.00
79690;BME280;69156;55.932;-3.238;2024-01-30T07:58:47;101857.49;;;3.76;100.00
79690;BME280;69156;55.932;-3.238;2024-01-30T08:01:12;101861.08;;;3.53;100.00
79690;BME280;69156;55.932;-3.238;2024-01-30T08:03:37;101864.90;;;3.60;100.00
79690;BME280;69156;55.932;-3.238;2024-01-30T08:06:05;101864.46;;;3.61;100.00
79690;BME280;69156;55.932;-3.238;2024-01-30T08:08:29;101864.08;;;3.61;100.00
79690;BME280;69156;55.932;-3.238;2024-01-30T08:10:54;101864.24;;;3.59;100.00
79690;BME280;69156;55.932;-3.238;2024-01-30T08:13:20;101864.97;;;3.72;100.00
79690;BME280;69156;55.932;-3.238;2024-01-30T08:15:46;101870.60;;;3.60;100.00
79690;BME280;69156;55.932;-3.238;2024-01-30T08:18:12;101872.83;;;3.59;100.00
79690;BME280;69156;55.932;-3.238;2024-01-30T08:20:37;101872.02;;;3.50;100.00
79690;BME280;69156;55.932;-3.238;2024-01-30T08:23:03;101876.54;;;3.48;100.00
79690;BME280;69156;55.932;-3.238;2024-01-30T08:25:28;101878.44;;;3.46;100.00
79690;BME280;69156;55.932;-3.238;2024-01-30T08:27:53;101880.60;;;3.61;100.00
79690;BME280;69156;55.932;-3.238;2024-01-30T08:30:19;101883.32;;;3.42;100.00
79690;BME280;69156;55.932;-3.238;2024-01-30T08:32:44;101887.58;;;3.61;100.00
79690;BME280;69156;55.932;-3.238;2024-01-30T08:35:09;101886.87;;;3.52;100.00
79690;BME280;69156;55.932;-3.238;2024-01-30T08:37:35;101889.60;;;3.44;100.00
79690;BME280;69156;55.932;-3.238;2024-01-30T08:40:00;101890.11;;;3.54;100.00
79690;BME280;69156;55.932;-3.238;2024-01-30T08:42:25;101893.70;;;3.44;100.00
79690;BME280;69156;55.932;-3.238;2024-01-30T08:44:51;101895.77;;;3.45;100.00
79690;BME280;69156;55.932;-3.238;2024-01-30T08:47:16;101898.91;;;3.32;100.00
79690;BME280;69156;55.932;-3.238;2024-01-30T08:49:41;101903.08;;;3.27;100.00
79690;BME280;69156;55.932;-3.238;2024-01-30T08:52:07;101903.23;;;3.42;100.00
79690;BME280;69156;55.932;-3.238;2024-01-30T08:54:32;101904.12;;;3.30;100.00
79690;BME280;69156;55.932;-3.238;2024-01-30T08:56:57;101901.40;;;3.37;100.00
79690;BME280;69156;55.932;-3.238;2024-01-30T08:59:23;101898.08;;;3.47;100.00
79690;BME280;69156;55.932;-3.238;2024-01-30T09:01:48;101903.12;;;3.43;100.00
79690;BME280;69156;55.932;-3.238;2024-01-30T09:04:13;101905.45;;;3.34;100.00
79690;BME280;69156;55.932;-3.238;2024-01-30T09:06:39;101905.06;;;3.39;100.00
79690;BME280;69156;55.932;-3.238;2024-01-30T09:09:04;101902.74;;;3.43;100.00
79690;BME280;69156;55.932;-3.238;2024-01-30T09:11:30;101904.07;;;3.38;100.00
79690;BME280;69156;55.932;-3.238;2024-01-30T09:13:55;101907.30;;;3.40;100.00
79690;BME280;69156;55.932;-3.238;2024-01-30T09:16:21;101909.76;;;3.49;100.00
79690;BME280;69156;55.932;-3.238;2024-01-30T09:18:46;101912.58;;;3.51;100.00
79690;BME280;69156;55.932;-3.238;2024-01-30T09:21:11;101911.24;;;3.41;100.00
79690;BME280;69156;55.932;-3.238;2024-01-30T09:23:36;101917.39;;;3.58;100.00
79690;BME280;69156;55.932;-3.238;2024-01-30T09:26:02;101914.10;;;3.40;100.00
79690;BME280;69156;55.932;-3.238;2024-01-30T09:28:27;101912.79;;;3.39;100.00
79690;BME280;69156;55.932;-3.238;2024-01-30T09:30:53;101912.39;;;3.45;100.00
79690;BME280;69156;55.932;-3.238;2024-01-30T09:33:19;101913.67;;;3.40;100.00
79690;BME280;69156;55.932;-3.238;2024-01-30T09:35:45;101914.42;;;3.65;100.00
79690;BME280;69156;55.932;-3.238;2024-01-30T09:38:10;101912.35;;;3.58;100.00
79690;BME280;69156;55.932;-3.238;2024-01-30T09:40:36;101904.26;;;3.63;100.00
79690;BME280;69156;55.932;-3.238;2024-01-30T09:43:01;101911.96;;;3.66;100.00
79690;BME280;69156;55.932;-3.238;2024-01-30T09:45:26;101919.23;;;3.67;100.00
79690;BME280;69156;55.932;-3.238;2024-01-30T09:47:52;101920.41;;;3.76;100.00
79690;BME280;69156;55.932;-3.238;2024-01-30T09:50:17;101917.46;;;3.76;100.00
79690;BME280;69156;55.932;-3.238;2024-01-30T09:52:43;101925.45;;;3.82;100.00
79690;BME280;69156;55.932;-3.238;2024-01-30T09:55:09;101927.12;;;3.88;100.00
79690;BME280;69156;55.932;-3.238;2024-01-30T09:57:34;101924.83;;;3.90;100.00
79690;BME280;69156;55.932;-3.238;2024-01-30T09:59:59;101921.60;;;4.07;100.00
79690;BME280;69156;55.932;-3.238;2024-01-30T10:02:24;101927.83;;;4.02;100.00
79690;BME280;69156;55.932;-3.238;2024-01-30T10:04:51;101926.36;;;4.16;100.00
79690;BME280;69156;55.932;-3.238;2024-01-30T10:07:15;101923.20;;;4.09;100.00
79690;BME280;69156;55.932;-3.238;2024-01-30T10:09:40;101924.48;;;4.24;100.00
79690;BME280;69156;55.932;-3.238;2024-01-30T10:12:07;101928.01;;;4.11;100.00
79690;BME280;69156;55.932;-3.238;2024-01-30T10:14:31;101937.16;;;4.30;100.00
79690;BME280;69156;55.932;-3.238;2024-01-30T10:16:58;101939.47;;;4.24;100.00
79690;BME280;69156;55.932;-3.238;2024-01-30T10:19:23;101933.15;;;4.21;100.00
79690;BME280;69156;55.932;-3.238;2024-01-30T10:21:49;101934.87;;;4.39;100.00
79690;BME280;69156;55.932;-3.238;2024-01-30T10:24:14;101939.26;;;4.47;100.00
79690;BME280;69156;55.932;-3.238;2024-01-30T10:26:44;101940.95;;;4.62;100.00
79690;BME280;69156;55.932;-3.238;2024-01-30T10:29:08;101944.61;;;4.46;100.00
79690;BME280;69156;55.932;-3.238;2024-01-30T10:31:34;101945.45;;;4.46;100.00
79690;BME280;69156;55.932;-3.238;2024-01-30T10:33:59;101946.23;;;4.51;100.00
79690;BME280;69156;55.932;-3.238;2024-01-30T10:36:28;101947.28;;;4.58;100.00
79690;BME280;69156;55.932;-3.238;2024-01-30T10:38:51;101947.58;;;4.71;100.00
79690;BME280;69156;55.932;-3.238;2024-01-30T10:41:19;101953.27;;;4.74;100.00
79690;BME280;69156;55.932;-3.238;2024-01-30T10:43:42;101952.38;;;5.01;100.00
79690;BME280;69156;55.932;-3.238;2024-01-30T10:46:15;101952.71;;;5.04;100.00
79690;BME280;69156;55.932;-3.238;2024-01-30T10:48:36;101947.90;;;5.03;100.00
79690;BME280;69156;55.932;-3.238;2024-01-30T10:51:00;101947.79;;;5.08;100.00
79690;BME280;69156;55.932;-3.238;2024-01-30T10:53:24;101946.87;;;5.12;100.00
79690;BME280;69156;55.932;-3.238;2024-01-30T10:55:50;101953.97;;;5.11;100.00
79690;BME280;69156;55.932;-3.238;2024-01-30T10:58:15;101953.86;;;5.07;100.00
79690;BME280;69156;55.932;-3.238;2024-01-30T11:00:41;101958.40;;;5.04;100.00
79690;BME280;69156;55.932;-3.238;2024-01-30T11:03:06;101962.51;;;5.33;100.00
79690;BME280;69156;55.932;-3.238;2024-01-30T11:05:33;101962.89;;;5.34;100.00
79690;BME280;69156;55.932;-3.238;2024-01-30T11:07:56;101963.82;;;5.37;100.00
79690;BME280;69156;55.932;-3.238;2024-01-30T11:10:25;101962.23;;;5.56;100.00
79690;BME280;69156;55.932;-3.238;2024-01-30T11:12:48;101964.41;;;5.45;100.00
79690;BME280;69156;55.932;-3.238;2024-01-30T11:15:14;101965.01;;;5.58;100.00
79690;BME280;69156;55.932;-3.238;2024-01-30T11:17:50;101963.91;;;5.64;100.00
79690;BME280;69156;55.932;-3.238;2024-01-30T11:20:04;101966.31;;;5.68;100.00
79690;BME280;69156;55.932;-3.238;2024-01-30T11:22:30;101970.57;;;5.68;100.00
79690;BME280;69156;55.932;-3.238;2024-01-30T11:24:55;101971.50;;;5.71;100.00
79690;BME280;69156;55.932;-3.238;2024-01-30T11:27:20;101975.22;;;5.77;100.00
79690;BME280;69156;55.932;-3.238;2024-01-30T11:29:50;101971.50;;;5.81;100.00
79690;BME280;69156;55.932;-3.238;2024-01-30T11:32:11;101973.41;;;5.80;100.00
79690;BME280;69156;55.932;-3.238;2024-01-30T11:34:41;101977.83;;;5.87;100.00
79690;BME280;69156;55.932;-3.238;2024-01-30T11:37:05;101972.92;;;5.82;100.00
79690;BME280;69156;55.932;-3.238;2024-01-30T11:39:29;101965.06;;;5.93;100.00
79690;BME280;69156;55.932;-3.238;2024-01-30T11:41:54;101968.30;;;6.11;100.00
79690;BME280;69156;55.932;-3.238;2024-01-30T11:44:20;101963.58;;;6.15;100.00
79690;BME280;69156;55.932;-3.238;2024-01-30T11:46:45;101966.83;;;6.26;100.00
79690;BME280;69156;55.932;-3.238;2024-01-30T11:49:11;101966.97;;;6.34;100.00
79690;BME280;69156;55.932;-3.238;2024-01-30T11:51:36;101964.49;;;6.38;100.00
79690;BME280;69156;55.932;-3.238;2024-01-30T11:54:02;101958.99;;;6.45;100.00
79690;BME280;69156;55.932;-3.238;2024-01-30T11:56:28;101956.46;;;6.34;100.00
79690;BME280;69156;55.932;-3.238;2024-01-30T11:58:53;101951.57;;;6.21;100.00
79690;BME280;69156;55.932;-3.238;2024-01-30T12:01:19;101951.78;;;6.39;100.00
79690;BME280;69156;55.932;-3.238;2024-01-30T12:03:49;101952.41;;;6.34;100.00
79690;BME280;69156;55.932;-3.238;2024-01-30T12:06:10;101956.05;;;6.40;100.00
79690;BME280;69156;55.932;-3.238;2024-01-30T12:08:35;101955.42;;;6.47;100.00
79690;BME280;69156;55.932;-3.238;2024-01-30T12:11:01;101955.28;;;6.56;100.00
79690;BME280;69156;55.932;-3.238;2024-01-30T12:13:28;101953.86;;;6.55;100.00
79690;BME280;69156;55.932;-3.238;2024-01-30T12:15:52;101951.99;;;6.49;100.00
79690;BME280;69156;55.932;-3.238;2024-01-30T12:18:19;101954.77;;;6.60;100.00
79690;BME280;69156;55.932;-3.238;2024-01-30T12:20:44;101957.69;;;6.69;100.00
79690;BME280;69156;55.932;-3.238;2024-01-30T12:23:12;101954.42;;;6.58;100.00
79690;BME280;69156;55.932;-3.238;2024-01-30T12:25:36;101955.78;;;6.78;100.00
79690;BME280;69156;55.932;-3.238;2024-01-30T12:28:03;101958.03;;;6.82;100.00
79690;BME280;69156;55.932;-3.238;2024-01-30T12:30:28;101953.87;;;6.97;100.00